메인 페이지
METAR-TAF:

METAR-TAF

공항 :

아레키파, 페루

위도: 16-19S, 경도: 071-33W, 고도: 2538m

현재 날씨관측

예보는 48분 전, 01:00시(UTC)에 발표되었습니다.
3kt
온도 14°C
습도 94%
기압 1029 hPa
시정 10km 이상
고도 300ft 상공 구름 보통
고도 1000ft 상공 구름 보통
고도 5000ft 상공 구름 많음
약한비

METAR: SPQU 260100Z 28003KT 9999 -RA SCT003 SCT010 BKN050 14/13 Q1029 RMK PP020

시각: 20:48 (01:48 UTC)

예보

예보는 2 시간 48분 전, 23:00시(UTC)에 발표되었습니다.
예보 대상 시간: 26일 00시부터 26일 24시까지 (UTC)
10kt
시정 10km 이상
고도 1000ft 상공 구름 보통
고도 1500ft 상공 구름 많음
일시적
26일 02시부터 26일 03시까지 (UTC)
고도 400ft 상공 구름 많음
고도 800ft 상공 구름 많음
전환 중
26일 03시부터 26일 05시까지 (UTC)
고도 1000ft 상공 구름 조금
고도 2000ft 상공 구름 많음
26일 1100시부터 (UTC)
북동2kt
시정 10km 이상
고도 5000ft 상공 구름 조금
고도 10000ft 상공 구름 보통
전환 중
26일 21시부터 26일 23시까지 (UTC)
고도 1500ft 상공 구름 많음

TAF: SPQU 252300Z 2600/2624 26010KT 9999 SCT010 BKN015 TX20/2618Z TN12/2610Z TEMPO 2602/2603 RA BKN004 BKN008 BECMG 2603/2605 NSW FEW010 BKN020 FM261100 04002KT 9999 FEW050 SCT100 BECMG 2621/2623 BKN015

4,000개 이상의 공항 관측 자료 및 예보 (METAR 및 TAF 보고).

지도상에서 검색 가능한 기상관측소가 노란 점과 빨간 점으로 표시되어 있습니다.

기상관측소 명을 보려면 표시 위로 마우스를 이동하세요.

날씨 관측과 예보를 보려면 클릭하세요.

지도 변경 : 확대하려면 엑스 표시가 있는 녹색 버튼, 축소하려면 빼기 표시가 있는 녹색 버튼, 다음 페이지의 지도를 보려면 녹색 화살표를 클릭하세요.


METAR-TAF: